createdAt,value
2022-10-31T00:01:22.297Z,97271.34
2022-10-31T00:03:49.330Z,97271.44
2022-10-31T00:06:19.210Z,97273.16
2022-10-31T00:08:54.588Z,97277.41
2022-10-31T00:11:21.843Z,97266.44
2022-10-31T00:13:48.764Z,97276.09
2022-10-31T00:16:23.853Z,97277.88
2022-10-31T00:18:56.255Z,97279.56
2022-10-31T00:21:23.586Z,97271.22
2022-10-31T00:23:50.545Z,97276.28
2022-10-31T00:26:18.127Z,97271.56
2022-10-31T00:28:45.461Z,97275.13
2022-10-31T00:31:13.710Z,97279.88
2022-10-31T00:33:41.673Z,97275.59
2022-10-31T00:36:11.851Z,97252.84
2022-10-31T00:38:40.497Z,97264.09
2022-10-31T00:41:07.541Z,97258.03
2022-10-31T00:43:34.385Z,97258.53
2022-10-31T00:46:01.544Z,97255.53
2022-10-31T00:48:29.575Z,97254.31
2022-10-31T00:50:56.750Z,97259.38
2022-10-31T00:53:23.848Z,97265.72
2022-10-31T00:55:51.589Z,97253.25
2022-10-31T00:58:18.495Z,97264.63
2022-10-31T01:00:48.107Z,97268.09
2022-10-31T01:03:17.875Z,97265.97
2022-10-31T01:05:44.764Z,97267.63
2022-10-31T01:08:11.618Z,97250.50
2022-10-31T01:10:38.470Z,97263.16
2022-10-31T01:13:05.321Z,97262.41
2022-10-31T01:15:32.196Z,97266.78
2022-10-31T01:17:59.571Z,97271.63
2022-10-31T01:20:26.649Z,97270.34
2022-10-31T01:22:54.273Z,97263.44
2022-10-31T01:25:24.479Z,97273.03
2022-10-31T01:27:51.316Z,97266.72
2022-10-31T01:30:18.210Z,97276.09
2022-10-31T01:32:45.261Z,97271.09
2022-10-31T01:35:12.163Z,97265.31
2022-10-31T01:37:39.083Z,97259.28
2022-10-31T01:40:06.682Z,97260.38
2022-10-31T01:42:33.545Z,97262.63
2022-10-31T01:45:02.359Z,97255.28
2022-10-31T01:47:42.187Z,97261.50
2022-10-31T01:50:39.253Z,97255.28
2022-10-31T01:53:08.195Z,97253.31
2022-10-31T01:55:39.754Z,97252.75
2022-10-31T01:58:14.903Z,97246.63
2022-10-31T02:00:44.559Z,97252.28
2022-10-31T02:03:12.330Z,97252.94
2022-10-31T02:05:39.553Z,97250.19
2022-10-31T02:08:22.179Z,97252.22
2022-10-31T02:10:50.701Z,97243.75
2022-10-31T02:13:19.839Z,97242.97
2022-10-31T02:15:53.013Z,97246.44
2022-10-31T02:18:20.621Z,97226.44
2022-10-31T02:21:00.512Z,97238.97
2022-10-31T02:23:33.143Z,97241.41
2022-10-31T02:26:09.797Z,97246.78
2022-10-31T02:29:04.568Z,97238.47
2022-10-31T02:31:54.431Z,97243.28
2022-10-31T02:34:42.968Z,97243.41
2022-10-31T02:37:17.837Z,97244.03
2022-10-31T02:40:06.865Z,97248.09
2022-10-31T02:43:21.929Z,97257.66
2022-10-31T02:45:55.176Z,97253.28
2022-10-31T02:48:29.044Z,97260.81
2022-10-31T02:51:01.963Z,97256.38
2022-10-31T02:53:36.820Z,97275.41
2022-10-31T02:56:13.317Z,97242.63
2022-10-31T02:58:45.892Z,97280.13
2022-10-31T03:01:37.918Z,97290.09
2022-10-31T03:04:13.984Z,97288.53
2022-10-31T03:07:09.245Z,97286.66
2022-10-31T03:09:52.335Z,97292.06
2022-10-31T03:12:22.191Z,97285.84
2022-10-31T03:15:11.436Z,97296.81
2022-10-31T03:17:46.294Z,97291.47
2022-10-31T03:20:13.168Z,97294.47
2022-10-31T03:22:43.328Z,97306.53
2022-10-31T03:25:11.008Z,97294.75
2022-10-31T03:27:41.010Z,97297.38
2022-10-31T03:30:09.165Z,97294.88
2022-10-31T03:32:57.117Z,97291.66
2022-10-31T03:35:26.696Z,97291.75
2022-10-31T03:37:56.005Z,97282.44
2022-10-31T03:40:27.534Z,97278.34
2022-10-31T03:43:08.723Z,97284.13
2022-10-31T03:45:43.067Z,97281.16
2022-10-31T03:48:10.337Z,97282.50
2022-10-31T03:51:04.824Z,97299.53
2022-10-31T03:53:39.626Z,97307.09
2022-10-31T03:56:13.931Z,97320.47
2022-10-31T03:58:49.801Z,97324.72
2022-10-31T04:01:19.256Z,97333.31
2022-10-31T04:03:47.331Z,97335.44
2022-10-31T04:06:17.944Z,97333.38
2022-10-31T04:08:58.126Z,97336.97
2022-10-31T04:11:30.874Z,97324.84
2022-10-31T04:14:16.500Z,97331.44
2022-10-31T04:16:45.064Z,97330.94
2022-10-31T04:19:13.553Z,97340.03
2022-10-31T04:21:44.253Z,97348.84
2022-10-31T04:24:12.440Z,97347.59
2022-10-31T04:26:42.404Z,97349.06
2022-10-31T04:29:09.254Z,97358.69
2022-10-31T04:31:36.102Z,97351.56
2022-10-31T04:34:03.021Z,97350.34
2022-10-31T04:36:29.941Z,97357.03
2022-10-31T04:38:58.422Z,97363.75
2022-10-31T04:41:35.325Z,97366.94
2022-10-31T04:44:04.932Z,97366.72
2022-10-31T04:46:34.241Z,97364.66
2022-10-31T04:49:02.989Z,97375.47
2022-10-31T04:51:29.994Z,97376.41
2022-10-31T04:53:57.084Z,97384.78
2022-10-31T04:56:29.795Z,97375.88
2022-10-31T04:58:59.573Z,97376.22
2022-10-31T05:01:30.531Z,97389.97
2022-10-31T05:03:59.527Z,97384.06
2022-10-31T05:06:26.386Z,97393.41
2022-10-31T05:08:53.772Z,97396.56
2022-10-31T05:11:20.716Z,97399.72
2022-10-31T05:13:47.590Z,97373.03
2022-10-31T05:16:14.432Z,97409.16
2022-10-31T05:19:16.708Z,97415.84
2022-10-31T05:22:01.801Z,97425.25
2022-10-31T05:24:29.797Z,97416.59
2022-10-31T05:26:56.697Z,97417.94
2022-10-31T05:29:23.694Z,97425.38
2022-10-31T05:31:50.481Z,97423.59
2022-10-31T05:34:38.570Z,97430.63
2022-10-31T05:37:40.475Z,97427.56
2022-10-31T05:40:10.349Z,97439.75
2022-10-31T05:42:43.131Z,97435.31
2022-10-31T05:45:15.350Z,97439.94
2022-10-31T05:47:53.233Z,97448.34
2022-10-31T05:50:50.153Z,97447.81
2022-10-31T05:53:17.544Z,97444.75
2022-10-31T05:55:45.419Z,97448.34
2022-10-31T05:58:15.173Z,97455.47
2022-10-31T06:00:50.045Z,97453.59
2022-10-31T06:03:16.945Z,97457.88
2022-10-31T06:05:55.185Z,97460.72
2022-10-31T06:08:25.681Z,97455.25
2022-10-31T06:10:54.827Z,97468.16
2022-10-31T06:13:41.719Z,97466.34
2022-10-31T06:16:16.889Z,97463.31
2022-10-31T06:18:46.996Z,97464.91
2022-10-31T06:21:17.948Z,97458.47
2022-10-31T06:23:46.656Z,97467.63
2022-10-31T06:26:31.740Z,97472.22
2022-10-31T06:29:03.123Z,97475.97
2022-10-31T06:31:52.584Z,97473.84
2022-10-31T06:34:19.735Z,97469.19
2022-10-31T06:36:47.466Z,97475.56
2022-10-31T06:39:14.953Z,97481.47
2022-10-31T06:41:42.559Z,97486.63
2022-10-31T06:44:10.993Z,97482.81
2022-10-31T06:46:58.086Z,97482.69
2022-10-31T06:49:33.745Z,97484.75
2022-10-31T06:52:03.487Z,97473.66
2022-10-31T06:54:30.388Z,97480.22
2022-10-31T06:56:57.385Z,97491.75
2022-10-31T06:59:25.238Z,97491.63
2022-10-31T07:02:11.679Z,97490.91
2022-10-31T07:04:40.248Z,97487.69
2022-10-31T07:07:08.144Z,97491.75
2022-10-31T07:09:36.523Z,97493.78
2022-10-31T07:12:05.254Z,97494.63
2022-10-31T07:14:35.811Z,97486.97
2022-10-31T07:17:03.173Z,97498.56
2022-10-31T07:19:37.583Z,97487.09
2022-10-31T07:22:04.559Z,97495.72
2022-10-31T07:24:32.905Z,97471.97
2022-10-31T07:27:22.595Z,97487.22
2022-10-31T07:29:49.511Z,97483.03
2022-10-31T07:32:17.348Z,97482.31
2022-10-31T07:34:51.933Z,97476.56
2022-10-31T07:37:33.520Z,97488.53
2022-10-31T07:40:00.672Z,97486.75
2022-10-31T07:42:28.236Z,97482.75
2022-10-31T07:44:57.575Z,97488.47
2022-10-31T07:47:24.846Z,97499.19
2022-10-31T07:50:34.994Z,97484.72
2022-10-31T07:53:20.488Z,97493.41
2022-10-31T07:55:53.903Z,97486.72
2022-10-31T07:58:20.845Z,97484.56
2022-10-31T08:00:48.962Z,97482.31
2022-10-31T08:03:26.175Z,97486.50
2022-10-31T08:06:11.613Z,97479.00
2022-10-31T08:08:57.189Z,97484.09
2022-10-31T08:11:24.079Z,97478.03
2022-10-31T08:13:51.099Z,97472.50
2022-10-31T08:16:19.577Z,97499.63
2022-10-31T08:18:57.522Z,97491.66
2022-10-31T08:21:24.532Z,97488.53
2022-10-31T08:23:51.521Z,97479.66
2022-10-31T08:26:22.427Z,97493.03
2022-10-31T08:28:51.467Z,97477.25
2022-10-31T08:31:21.962Z,97484.59
2022-10-31T08:33:48.809Z,97488.38
2022-10-31T08:36:18.559Z,97484.72
2022-10-31T08:39:07.987Z,97488.41
2022-10-31T08:41:36.210Z,97493.53
2022-10-31T08:44:03.726Z,97493.53
2022-10-31T08:46:30.719Z,97497.44
2022-10-31T08:48:57.684Z,97490.81
2022-10-31T08:58:24.435Z,97500.31
2022-10-31T09:00:57.318Z,97506.94
2022-10-31T09:03:28.891Z,97503.31
2022-10-31T09:05:57.915Z,97517.91
2022-10-31T09:08:25.241Z,97499.13
2022-10-31T09:10:52.560Z,97510.72
2022-10-31T09:13:38.752Z,97498.09
2022-10-31T09:16:34.280Z,97504.13
2022-10-31T09:19:01.247Z,97503.31
2022-10-31T09:21:28.583Z,97509.03
2022-10-31T09:23:59.039Z,97506.28
2022-10-31T09:26:26.021Z,97501.41
2022-10-31T09:29:11.342Z,97501.53
2022-10-31T09:31:44.585Z,97493.53
2022-10-31T09:34:26.310Z,97509.88
2022-10-31T09:37:25.385Z,97505.78
2022-10-31T09:39:52.595Z,97505.78
2022-10-31T09:42:35.813Z,97510.19
2022-10-31T09:45:37.165Z,97514.69
2022-10-31T09:48:36.394Z,97515.09
2022-10-31T09:51:15.980Z,97510.34
2022-10-31T09:54:19.569Z,97505.16
2022-10-31T09:56:46.799Z,97511.56
2022-10-31T09:59:29.243Z,97501.53
2022-10-31T10:02:02.062Z,97500.97
2022-10-31T10:04:53.336Z,97488.69
2022-10-31T10:07:34.082Z,97499.38
2022-10-31T10:10:34.402Z,97501.44
2022-10-31T10:13:31.809Z,97501.72
2022-10-31T10:16:10.344Z,97495.28
2022-10-31T10:19:00.634Z,97482.72
2022-10-31T10:21:46.110Z,97489.97
2022-10-31T10:24:42.352Z,97493.09
2022-10-31T10:27:31.477Z,97477.56
2022-10-31T10:30:12.330Z,97491.84
2022-10-31T10:32:53.326Z,97469.41
2022-10-31T10:35:31.293Z,97479.88
2022-10-31T10:38:04.360Z,97474.72
2022-10-31T10:40:31.492Z,97479.81
2022-10-31T10:43:19.986Z,97472.41
2022-10-31T10:46:11.616Z,97471.31
2022-10-31T10:48:50.371Z,97473.09
2022-10-31T10:51:46.991Z,97473.19
2022-10-31T10:54:35.573Z,97479.44
2022-10-31T10:57:23.672Z,97465.41
2022-10-31T10:59:52.130Z,97467.59
2022-10-31T11:02:25.516Z,97467.31
2022-10-31T11:04:55.815Z,97465.50
2022-10-31T11:07:23.228Z,97467.91
2022-10-31T11:09:50.414Z,97451.16
2022-10-31T11:12:23.122Z,97460.38
2022-10-31T11:15:00.405Z,97458.28
2022-10-31T11:17:32.424Z,97462.31
2022-10-31T11:20:05.465Z,97462.63
2022-10-31T11:22:32.821Z,97465.06
2022-10-31T11:24:59.796Z,97465.91
2022-10-31T11:27:27.715Z,97466.16
2022-10-31T11:30:05.729Z,97463.03
2022-10-31T11:32:32.808Z,97451.94
2022-10-31T11:35:02.924Z,97452.66
2022-10-31T11:37:36.110Z,97445.94
2022-10-31T11:40:07.571Z,97450.66
2022-10-31T11:42:41.324Z,97448.41
2022-10-31T11:45:34.748Z,97447.16
2022-10-31T11:48:03.487Z,97438.84
2022-10-31T11:50:38.164Z,97434.16
2022-10-31T11:53:13.765Z,97435.13
2022-10-31T11:55:40.984Z,97442.66
2022-10-31T11:58:25.734Z,97445.16
2022-10-31T12:00:56.278Z,97431.75
2022-10-31T12:03:23.184Z,97436.47
2022-10-31T12:06:00.192Z,97424.97
2022-10-31T12:08:32.209Z,97422.91
2022-10-31T12:11:08.293Z,97426.94
2022-10-31T12:13:46.698Z,97409.50
2022-10-31T12:16:30.584Z,97435.13
2022-10-31T12:19:20.763Z,97435.00
2022-10-31T12:22:22.976Z,97440.97
2022-10-31T12:25:01.612Z,97430.09
2022-10-31T12:27:51.733Z,97438.16
2022-10-31T12:30:18.699Z,97438.28
2022-10-31T12:33:02.624Z,97439.69
2022-10-31T12:35:54.574Z,97429.09
2022-10-31T12:38:51.525Z,97433.94
2022-10-31T12:41:43.255Z,97438.56
2022-10-31T12:44:55.430Z,97429.97
2022-10-31T12:47:31.514Z,97431.22
2022-10-31T12:50:32.601Z,97438.16
2022-10-31T12:53:24.005Z,97431.63
2022-10-31T12:56:14.853Z,97436.81
2022-10-31T12:58:45.314Z,97431.53
2022-10-31T13:01:21.719Z,97436.78
2022-10-31T13:04:02.297Z,97435.53
2022-10-31T13:06:46.567Z,97427.84
2022-10-31T13:09:18.987Z,97437.06
2022-10-31T13:12:02.190Z,97441.09
2022-10-31T13:14:47.304Z,97444.03
2022-10-31T13:17:29.553Z,97436.38
2022-10-31T13:20:14.471Z,97440.00
2022-10-31T13:22:46.792Z,97442.88
2022-10-31T13:25:22.661Z,97446.28
2022-10-31T13:28:18.810Z,97440.97
2022-10-31T13:30:45.889Z,97452.06
2022-10-31T13:33:25.186Z,97434.66
2022-10-31T13:36:01.045Z,97439.28
2022-10-31T13:38:44.093Z,97452.34
2022-10-31T13:41:32.640Z,97448.72
2022-10-31T13:44:28.621Z,97447.34
2022-10-31T13:46:58.168Z,97441.63
2022-10-31T13:49:31.115Z,97459.72
2022-10-31T13:57:51.492Z,97448.97
2022-10-31T14:00:21.518Z,97454.84
2022-10-31T14:02:55.489Z,97459.53
2022-10-31T14:05:33.846Z,97456.50
2022-10-31T14:08:04.341Z,97468.31
2022-10-31T14:10:37.306Z,97461.38
2022-10-31T14:13:16.032Z,97459.53
2022-10-31T14:19:15.747Z,97468.41
2022-10-31T14:21:47.518Z,97468.69
2022-10-31T14:24:35.701Z,97459.91
2022-10-31T14:27:25.579Z,97474.94
2022-10-31T14:29:52.628Z,97471.72
2022-10-31T14:32:23.221Z,97468.50
2022-10-31T14:34:59.118Z,97469.88
2022-10-31T14:37:52.303Z,97463.00
2022-10-31T14:40:26.297Z,97470.22
2022-10-31T14:43:03.072Z,97472.69
2022-10-31T14:45:54.792Z,97466.56
2022-10-31T14:51:23.779Z,97472.06
2022-10-31T14:53:55.222Z,97477.31
2022-10-31T14:56:35.606Z,97470.22
2022-10-31T14:59:08.699Z,97473.25
2022-10-31T15:01:38.433Z,97473.63
2022-10-31T15:04:23.067Z,97478.53
2022-10-31T15:06:59.028Z,97478.03
2022-10-31T15:09:29.501Z,97481.50
2022-10-31T15:11:56.603Z,97482.31
2022-10-31T15:14:23.448Z,97481.88
2022-10-31T15:16:51.038Z,97480.47
2022-10-31T15:19:26.683Z,97484.84
2022-10-31T15:21:56.635Z,97486.44
2022-10-31T15:24:31.338Z,97493.53
2022-10-31T15:27:04.935Z,97493.34
2022-10-31T15:29:32.717Z,97490.75
2022-10-31T15:32:02.420Z,97485.03
2022-10-31T15:34:40.975Z,97499.91
2022-10-31T15:37:19.643Z,97504.19
2022-10-31T15:39:48.331Z,97496.28
2022-10-31T15:42:18.237Z,97505.63
2022-10-31T15:44:50.371Z,97505.59
2022-10-31T15:47:19.474Z,97504.06
2022-10-31T15:49:52.937Z,97505.97
2022-10-31T15:52:34.249Z,97503.97
2022-10-31T15:55:05.336Z,97498.56
2022-10-31T15:57:33.046Z,97518.44
2022-10-31T16:00:00.014Z,97516.03
2022-10-31T16:02:28.375Z,97521.53
2022-10-31T16:05:16.951Z,97520.78
2022-10-31T16:07:50.980Z,97519.56
2022-10-31T16:10:26.262Z,97527.22
2022-10-31T16:12:54.230Z,97524.06
2022-10-31T16:15:22.167Z,97529.59
2022-10-31T16:17:52.657Z,97524.28
2022-10-31T16:20:24.107Z,97534.28
2022-10-31T16:22:52.906Z,97536.19
2022-10-31T16:25:28.902Z,97545.34
2022-10-31T16:28:03.020Z,97546.63
2022-10-31T16:30:48.547Z,97537.31
2022-10-31T16:33:37.857Z,97551.75
2022-10-31T16:36:36.312Z,97552.06
2022-10-31T16:39:04.334Z,97551.56
2022-10-31T16:41:31.291Z,97550.03
2022-10-31T16:43:58.262Z,97553.44
2022-10-31T16:46:27.374Z,97559.13
2022-10-31T16:48:55.009Z,97557.94
2022-10-31T16:51:21.914Z,97549.34
2022-10-31T16:53:48.836Z,97553.78
2022-10-31T16:56:19.203Z,97561.16
2022-10-31T16:58:46.209Z,97565.34
2022-10-31T17:01:14.096Z,97565.25
2022-10-31T17:03:41.200Z,97560.16
2022-10-31T17:06:13.024Z,97575.03
2022-10-31T17:08:40.102Z,97576.81
2022-10-31T17:11:14.712Z,97578.41
2022-10-31T17:13:41.704Z,97581.34
2022-10-31T17:16:08.694Z,97577.34
2022-10-31T17:18:35.722Z,97583.38
2022-10-31T17:21:06.158Z,97584.53
2022-10-31T17:23:33.443Z,97567.44
2022-10-31T17:26:00.634Z,97573.94
2022-10-31T17:28:27.639Z,97589.47
2022-10-31T17:30:58.397Z,97584.44
2022-10-31T17:33:25.546Z,97581.16
2022-10-31T17:35:52.489Z,97589.19
2022-10-31T17:38:19.650Z,97590.97
2022-10-31T17:43:18.881Z,97590.66
2022-10-31T17:45:45.870Z,97592.69
2022-10-31T17:48:13.063Z,97598.97
2022-10-31T17:50:40.162Z,97602.22
2022-10-31T17:53:07.170Z,97596.16
2022-10-31T17:55:36.984Z,97605.06
2022-10-31T17:58:05.266Z,97596.94
2022-10-31T18:00:32.521Z,97600.19
2022-10-31T18:02:59.792Z,97612.63
2022-10-31T18:05:26.923Z,97609.41
2022-10-31T18:07:53.813Z,97609.41
2022-10-31T18:10:20.686Z,97614.28
2022-10-31T18:12:48.794Z,97611.31
2022-10-31T18:15:17.324Z,97620.88
2022-10-31T18:17:44.558Z,97614.88
2022-10-31T18:20:11.839Z,97626.19
2022-10-31T18:22:38.700Z,97623.75
2022-10-31T18:25:06.345Z,97622.16
2022-10-31T18:27:33.212Z,97618.63
2022-10-31T18:30:00.077Z,97631.19
2022-10-31T18:32:26.995Z,97624.97
2022-10-31T18:34:53.912Z,97613.56
2022-10-31T18:37:20.740Z,97629.22
2022-10-31T18:39:47.589Z,97625.09
2022-10-31T18:42:14.485Z,97629.66
2022-10-31T18:44:41.362Z,97643.59
2022-10-31T18:47:08.238Z,97639.72
2022-10-31T18:49:36.567Z,97638.47
2022-10-31T18:52:04.732Z,97640.81
2022-10-31T18:54:31.535Z,97646.81
2022-10-31T18:56:58.409Z,97651.41
2022-10-31T18:59:25.290Z,97660.94
2022-10-31T19:01:52.302Z,97654.41
2022-10-31T19:04:19.399Z,97662.81
2022-10-31T19:06:46.370Z,97659.66
2022-10-31T19:09:13.205Z,97659.66
2022-10-31T19:11:40.129Z,97669.09
2022-10-31T19:14:11.061Z,97664.81
2022-10-31T19:16:38.113Z,97661.25
2022-10-31T19:19:05.401Z,97674.06
2022-10-31T19:21:32.533Z,97667.69
2022-10-31T19:24:00.642Z,97669.75
2022-10-31T19:26:28.527Z,97667.34
2022-10-31T19:28:56.502Z,97664.50
2022-10-31T19:31:23.787Z,97675.34
2022-10-31T19:33:50.951Z,97676.09
2022-10-31T19:36:19.666Z,97674.69
2022-10-31T19:38:49.392Z,97666.75
2022-10-31T19:41:18.841Z,97665.00
2022-10-31T19:43:45.913Z,97659.38
2022-10-31T19:46:22.952Z,97674.53
2022-10-31T19:49:03.332Z,97680.97
2022-10-31T19:51:30.233Z,97678.91
2022-10-31T19:53:57.081Z,97686.78
2022-10-31T19:56:25.845Z,97688.91
2022-10-31T19:58:52.881Z,97685.38
2022-10-31T20:01:22.275Z,97679.13
2022-10-31T20:03:49.824Z,97687.31
2022-10-31T20:06:16.662Z,97687.88
2022-10-31T20:08:43.495Z,97696.75
2022-10-31T20:11:10.494Z,97692.75
2022-10-31T20:13:37.409Z,97686.66
2022-10-31T20:16:09.637Z,97699.84
2022-10-31T20:18:38.014Z,97699.81
2022-10-31T20:21:14.790Z,97698.50
2022-10-31T20:23:42.091Z,97699.19
2022-10-31T20:26:11.511Z,97701.91
2022-10-31T20:28:41.456Z,97703.81
2022-10-31T20:31:15.361Z,97699.78
2022-10-31T20:33:42.521Z,97705.34
2022-10-31T20:36:10.017Z,97704.34
2022-10-31T20:38:41.037Z,97703.97
2022-10-31T20:41:10.612Z,97703.63
2022-10-31T20:43:38.480Z,97702.25
2022-10-31T20:46:11.115Z,97701.00
2022-10-31T20:48:38.472Z,97706.88
2022-10-31T20:51:08.177Z,97700.25
2022-10-31T20:53:35.164Z,97701.81
2022-10-31T20:56:08.285Z,97703.34
2022-10-31T20:58:36.773Z,97700.72
2022-10-31T21:01:05.437Z,97703.31
2022-10-31T21:03:32.784Z,97702.47
2022-10-31T21:06:01.661Z,97700.09
2022-10-31T21:08:30.304Z,97702.81
2022-10-31T21:10:58.148Z,97700.13
2022-10-31T21:13:25.622Z,97693.81
2022-10-31T21:15:59.938Z,97684.13
2022-10-31T21:18:26.850Z,97704.09
2022-10-31T21:20:53.986Z,97705.75
2022-10-31T21:23:20.808Z,97699.69
2022-10-31T21:25:47.792Z,97717.47
2022-10-31T21:28:16.052Z,97711.41
2022-10-31T21:30:46.461Z,97718.69
2022-10-31T21:33:14.622Z,97714.47
2022-10-31T21:35:48.287Z,97710.91
2022-10-31T21:38:15.103Z,97719.09
2022-10-31T21:43:13.780Z,97710.91
2022-10-31T21:45:40.653Z,97711.75
2022-10-31T21:48:07.554Z,97708.69
2022-10-31T21:50:34.964Z,97703.53
2022-10-31T21:53:21.790Z,97706.41
2022-10-31T21:55:48.678Z,97709.28
2022-10-31T21:58:15.520Z,97706.69
2022-10-31T22:00:42.399Z,97705.84
2022-10-31T22:03:09.368Z,97703.00
2022-10-31T22:05:36.244Z,97719.31
2022-10-31T22:08:03.735Z,97712.22
2022-10-31T22:10:30.797Z,97709.91
2022-10-31T22:12:57.824Z,97719.63
2022-10-31T22:15:24.689Z,97728.84
2022-10-31T22:17:51.592Z,97728.66
2022-10-31T22:20:21.228Z,97731.34
2022-10-31T22:22:48.568Z,97727.31
2022-10-31T22:25:15.590Z,97726.47
2022-10-31T22:27:42.822Z,97737.13
2022-10-31T22:30:10.585Z,97734.38
2022-10-31T22:32:37.500Z,97732.59
2022-10-31T22:35:04.814Z,97730.91
2022-10-31T22:37:31.761Z,97734.16
2022-10-31T22:39:59.301Z,97726.63
2022-10-31T22:42:26.145Z,97727.53
2022-10-31T22:44:52.932Z,97731.69
2022-10-31T22:47:19.827Z,97724.31
2022-10-31T22:49:46.651Z,97738.41
2022-10-31T22:52:13.467Z,97735.13
2022-10-31T22:54:40.272Z,97743.75
2022-10-31T22:57:07.108Z,97732.84
2022-10-31T22:59:34.060Z,97732.13
2022-10-31T23:02:01.011Z,97731.25
2022-10-31T23:04:27.987Z,97719.91
2022-10-31T23:06:54.805Z,97717.44
2022-10-31T23:09:21.633Z,97728.72
2022-10-31T23:11:48.699Z,97727.34
2022-10-31T23:14:20.686Z,97725.22
2022-10-31T23:16:47.796Z,97721.31
2022-10-31T23:19:18.831Z,97737.91
2022-10-31T23:21:57.349Z,97734.88
2022-10-31T23:24:41.917Z,97716.38
2022-10-31T23:27:28.950Z,97729.94
2022-10-31T23:29:59.321Z,97731.09
2022-10-31T23:32:37.860Z,97734.03
2022-10-31T23:35:07.999Z,97736.50
2022-10-31T23:37:36.866Z,97731.31
2022-10-31T23:40:04.886Z,97725.47
2022-10-31T23:42:31.770Z,97729.59
2022-10-31T23:44:58.641Z,97726.78
2022-10-31T23:47:25.858Z,97729.06
2022-10-31T23:49:52.728Z,97716.19
2022-10-31T23:52:19.951Z,97722.88
2022-10-31T23:54:47.125Z,97719.28
2022-10-31T23:57:15.473Z,97712.34
2022-10-31T23:59:42.785Z,97716.66
